4XARY LLMG-LLHA
Flight info
| Callsign | 4XARY |
|---|---|
| Flight time | 0h 17m |
| Altitude | 3000 |
| Route | CVFR |
| Aircraft | C152/L-VD/A |
Departure
| Time | 2026-04-25 12:32 |
|---|---|
| Airport | Megiddo Airport (LLMG) |
Arrival
| Time | 2026-04-25 12:49 |
|---|---|
| Airport | Uri Michaeli Haifa International Airport (LLHA) |
| Time | Latitude | Longitude | Altitude | Speed | Heading |
|---|---|---|---|---|---|
| 2026-04-25 12:23 | 32.59606 | 35.23533 | 185 ft | 0 kts | 235° |
| 2026-04-25 12:27 | 32.59608 | 35.23516 | 188 ft | 7 kts | 324° |
| 2026-04-25 12:27 | 32.59671 | 35.23470 | 186 ft | 13 kts | 326° |
| 2026-04-25 12:27 | 32.59707 | 35.23358 | 188 ft | 18 kts | 271° |
| 2026-04-25 12:27 | 32.59707 | 35.23197 | 190 ft | 21 kts | 268° |
| 2026-04-25 12:28 | 32.59711 | 35.23015 | 193 ft | 29 kts | 271° |
| 2026-04-25 12:28 | 32.59720 | 35.22703 | 194 ft | 42 kts | 271° |
| 2026-04-25 12:28 | 32.59725 | 35.22401 | 196 ft | 31 kts | 266° |
| 2026-04-25 12:28 | 32.59711 | 35.22254 | 195 ft | 12 kts | 311° |
| 2026-04-25 12:29 | 32.59729 | 35.22283 | 195 ft | 9 kts | 108° |
| 2026-04-25 12:29 | 32.59727 | 35.22355 | 206 ft | 8 kts | 92° |
| 2026-04-25 12:29 | 32.59725 | 35.22421 | 196 ft | 8 kts | 90° |
| 2026-04-25 12:29 | 32.59723 | 35.22496 | 196 ft | 10 kts | 92° |
| 2026-04-25 12:30 | 32.59722 | 35.22541 | 195 ft | 0 kts | 90° |
| 2026-04-25 12:30 | 32.59722 | 35.22610 | 195 ft | 32 kts | 92° |
| 2026-04-25 12:30 | 32.59713 | 35.23074 | 192 ft | 75 kts | 90° |
| 2026-04-25 12:31 | 32.59711 | 35.23280 | 233 ft | 74 kts | 89° |
| 2026-04-25 12:31 | 32.59703 | 35.23914 | 366 ft | 78 kts | 89° |
| 2026-04-25 12:31 | 32.59742 | 35.24548 | 565 ft | 76 kts | 83° |
| 2026-04-25 12:31 | 32.59821 | 35.25166 | 752 ft | 77 kts | 79° |
| 2026-04-25 12:32 | 32.59933 | 35.25788 | 941 ft | 76 kts | 76° |
| 2026-04-25 12:32 | 32.60084 | 35.26401 | 1097 ft | 80 kts | 65° |
| 2026-04-25 12:32 | 32.60392 | 35.26975 | 1222 ft | 83 kts | 56° |
| 2026-04-25 12:32 | 32.60706 | 35.27545 | 1368 ft | 83 kts | 54° |
| 2026-04-25 12:33 | 32.61060 | 35.28078 | 1559 ft | 81 kts | 48° |
| 2026-04-25 12:33 | 32.61530 | 35.28414 | 1746 ft | 77 kts | 3° |
| 2026-04-25 12:33 | 32.62053 | 35.28425 | 1956 ft | 73 kts | 355° |
| 2026-04-25 12:33 | 32.62583 | 35.28361 | 2050 ft | 80 kts | 2° |
| 2026-04-25 12:34 | 32.63148 | 35.28496 | 2183 ft | 84 kts | 9° |
| 2026-04-25 12:34 | 32.63719 | 35.28625 | 2351 ft | 84 kts | 8° |
| 2026-04-25 12:34 | 32.64298 | 35.28739 | 2514 ft | 85 kts | 8° |
| 2026-04-25 12:34 | 32.64687 | 35.28819 | 2611 ft | 86 kts | 7° |
| 2026-04-25 12:35 | 32.65487 | 35.28902 | 2766 ft | 88 kts | 359° |
| 2026-04-25 12:35 | 32.66109 | 35.28888 | 2856 ft | 90 kts | 355° |
| 2026-04-25 12:35 | 32.66746 | 35.28844 | 2871 ft | 97 kts | 1° |
| 2026-04-25 12:35 | 32.67426 | 35.28926 | 2865 ft | 99 kts | 5° |
| 2026-04-25 12:36 | 32.68110 | 35.29006 | 2890 ft | 99 kts | 5° |
| 2026-04-25 12:36 | 32.68786 | 35.29098 | 2964 ft | 94 kts | 5° |
| 2026-04-25 12:36 | 32.69456 | 35.29158 | 2960 ft | 101 kts | 2° |
| 2026-04-25 12:36 | 32.70150 | 35.29141 | 2969 ft | 99 kts | 352° |
| 2026-04-25 12:37 | 32.70768 | 35.28807 | 2969 ft | 98 kts | 320° |
| 2026-04-25 12:37 | 32.71289 | 35.28286 | 2992 ft | 98 kts | 318° |
| 2026-04-25 12:37 | 32.71802 | 35.27743 | 3004 ft | 99 kts | 320° |
| 2026-04-25 12:37 | 32.72322 | 35.27204 | 3026 ft | 99 kts | 316° |
| 2026-04-25 12:38 | 32.72814 | 35.26627 | 3046 ft | 100 kts | 314° |
| 2026-04-25 12:38 | 32.73300 | 35.26022 | 2993 ft | 101 kts | 312° |
| 2026-04-25 12:38 | 32.73746 | 35.25388 | 2993 ft | 100 kts | 309° |
| 2026-04-25 12:38 | 32.74181 | 35.24748 | 2999 ft | 99 kts | 307° |
| 2026-04-25 12:39 | 32.74580 | 35.24080 | 3039 ft | 99 kts | 302° |
| 2026-04-25 12:39 | 32.74903 | 35.23356 | 3027 ft | 100 kts | 285° |
| 2026-04-25 12:39 | 32.74885 | 35.22547 | 3005 ft | 100 kts | 260° |
| 2026-04-25 12:39 | 32.74709 | 35.21747 | 3018 ft | 100 kts | 256° |
| 2026-04-25 12:40 | 32.74538 | 35.20940 | 2988 ft | 101 kts | 255° |
| 2026-04-25 12:40 | 32.74362 | 35.20138 | 2982 ft | 100 kts | 257° |
| 2026-04-25 12:40 | 32.74218 | 35.19335 | 3013 ft | 99 kts | 259° |
| 2026-04-25 12:40 | 32.74077 | 35.18540 | 3001 ft | 99 kts | 258° |
| 2026-04-25 12:41 | 32.73931 | 35.17718 | 2942 ft | 102 kts | 259° |
| 2026-04-25 12:41 | 32.73845 | 35.16916 | 2991 ft | 99 kts | 266° |
| 2026-04-25 12:41 | 32.73812 | 35.16105 | 2983 ft | 99 kts | 268° |
| 2026-04-25 12:41 | 32.73778 | 35.15284 | 3009 ft | 99 kts | 267° |
| 2026-04-25 12:42 | 32.73750 | 35.14463 | 3027 ft | 100 kts | 269° |
| 2026-04-25 12:42 | 32.73733 | 35.13908 | 3007 ft | 103 kts | 266° |
| 2026-04-25 12:42 | 32.73701 | 35.12769 | 3032 ft | 101 kts | 269° |
| 2026-04-25 12:42 | 32.73677 | 35.11924 | 2958 ft | 104 kts | 267° |
| 2026-04-25 12:43 | 32.73745 | 35.11065 | 2882 ft | 104 kts | 283° |
| 2026-04-25 12:43 | 32.73913 | 35.10235 | 2806 ft | 105 kts | 285° |
| 2026-04-25 12:43 | 32.74495 | 35.08716 | 2792 ft | 104 kts | 301° |
| 2026-04-25 12:44 | 32.74887 | 35.07976 | 2719 ft | 107 kts | 303° |
| 2026-04-25 12:44 | 32.75331 | 35.07249 | 2583 ft | 112 kts | 309° |
| 2026-04-25 12:44 | 32.76620 | 35.06084 | 2055 ft | 115 kts | 340° |
| 2026-04-25 12:45 | 32.77340 | 35.05918 | 1990 ft | 100 kts | 352° |
| 2026-04-25 12:45 | 32.78022 | 35.05675 | 1772 ft | 104 kts | 338° |
| 2026-04-25 12:45 | 32.79343 | 35.05090 | 1304 ft | 93 kts | 340° |
| 2026-04-25 12:46 | 32.79954 | 35.04835 | 1105 ft | 89 kts | 340° |
| 2026-04-25 12:46 | 32.80500 | 35.04609 | 1053 ft | 81 kts | 339° |
| 2026-04-25 12:46 | 32.81019 | 35.04379 | 1019 ft | 76 kts | 339° |
| 2026-04-25 12:46 | 32.81490 | 35.04169 | 1003 ft | 68 kts | 343° |
| 2026-04-25 12:47 | 32.81924 | 35.04354 | 1020 ft | 73 kts | 48° |
| 2026-04-25 12:47 | 32.82097 | 35.04959 | 1015 ft | 82 kts | 78° |
| 2026-04-25 12:47 | 32.82204 | 35.05642 | 1034 ft | 85 kts | 91° |
| 2026-04-25 12:47 | 32.81889 | 35.06163 | 1115 ft | 82 kts | 152° |
| 2026-04-25 12:48 | 32.81423 | 35.06178 | 930 ft | 71 kts | 211° |
| 2026-04-25 12:48 | 32.81008 | 35.05851 | 695 ft | 70 kts | 219° |
| 2026-04-25 12:48 | 32.80648 | 35.05508 | 524 ft | 62 kts | 225° |
| 2026-04-25 12:48 | 32.80491 | 35.05078 | 336 ft | 55 kts | 259° |
| 2026-04-25 12:49 | 32.80546 | 35.04657 | 150 ft | 48 kts | 306° |
| 2026-04-25 12:49 | 32.80801 | 35.04473 | 20 ft | 34 kts | 338° |
| 2026-04-25 12:49 | 32.81076 | 35.04345 | 51 ft | 57 kts | 337° |
| 2026-04-25 12:49 | 32.81472 | 35.04175 | 221 ft | 62 kts | 340° |
| 2026-04-25 12:50 | 32.81933 | 35.04019 | 360 ft | 73 kts | 345° |
| 2026-04-25 12:50 | 32.82434 | 35.03909 | 531 ft | 76 kts | 2° |
| 2026-04-25 12:50 | 32.82943 | 35.04153 | 664 ft | 82 kts | 39° |
| 2026-04-25 12:50 | 32.83238 | 35.04735 | 802 ft | 85 kts | 77° |
| 2026-04-25 12:51 | 32.83088 | 35.05390 | 962 ft | 83 kts | 134° |
| 2026-04-25 12:51 | 32.82577 | 35.05771 | 1028 ft | 93 kts | 153° |
| 2026-04-25 12:51 | 32.81950 | 35.06094 | 1003 ft | 103 kts | 160° |
| 2026-04-25 12:51 | 32.81261 | 35.06191 | 891 ft | 93 kts | 193° |
| 2026-04-25 12:52 | 32.80791 | 35.05853 | 734 ft | 67 kts | 224° |
| 2026-04-25 12:52 | 32.80491 | 35.05483 | 541 ft | 68 kts | 232° |
| 2026-04-25 12:52 | 32.80253 | 35.05015 | 376 ft | 65 kts | 264° |
| 2026-04-25 12:52 | 32.80514 | 35.04580 | 88 ft | 77 kts | 346° |
| 2026-04-25 12:53 | 32.80971 | 35.04397 | 22 ft | 59 kts | 338° |
| 2026-04-25 12:53 | 32.81378 | 35.04211 | 93 ft | 70 kts | 338° |
| 2026-04-25 12:53 | 32.81857 | 35.04003 | 211 ft | 81 kts | 336° |
| 2026-04-25 12:53 | 32.82344 | 35.03809 | 436 ft | 74 kts | 1° |
| 2026-04-25 12:54 | 32.82779 | 35.04124 | 574 ft | 82 kts | 59° |
| 2026-04-25 12:54 | 32.83030 | 35.04757 | 681 ft | 85 kts | 85° |
| 2026-04-25 12:54 | 32.82732 | 35.05309 | 849 ft | 80 kts | 149° |
| 2026-04-25 12:54 | 32.82218 | 35.05650 | 930 ft | 90 kts | 152° |
| 2026-04-25 12:55 | 32.81626 | 35.05913 | 1000 ft | 95 kts | 165° |
| 2026-04-25 12:55 | 32.81209 | 35.06019 | 1017 ft | 85 kts | 180° |
| 2026-04-25 12:55 | 32.80542 | 35.05598 | 520 ft | 89 kts | 217° |
| 2026-04-25 12:55 | 32.80281 | 35.04998 | 288 ft | 79 kts | 273° |
| 2026-04-25 12:56 | 32.80595 | 35.04546 | 58 ft | 75 kts | 347° |
| 2026-04-25 12:56 | 32.81003 | 35.04383 | 25 ft | 56 kts | 332° |
| 2026-04-25 12:56 | 32.81427 | 35.04180 | 168 ft | 67 kts | 336° |
| 2026-04-25 12:56 | 32.81873 | 35.03979 | 362 ft | 68 kts | 340° |
| 2026-04-25 12:57 | 32.82329 | 35.03849 | 556 ft | 70 kts | 1° |
| 2026-04-25 12:57 | 32.82788 | 35.04137 | 645 ft | 82 kts | 46° |
| 2026-04-25 12:57 | 32.83066 | 35.04722 | 746 ft | 83 kts | 70° |
| 2026-04-25 12:57 | 32.82988 | 35.05377 | 922 ft | 83 kts | 126° |
| 2026-04-25 12:58 | 32.82496 | 35.05761 | 1021 ft | 90 kts | 156° |
| 2026-04-25 12:58 | 32.81886 | 35.06038 | 1041 ft | 85 kts | 164° |
| 2026-04-25 12:58 | 32.81395 | 35.06076 | 924 ft | 66 kts | 200° |
| 2026-04-25 12:58 | 32.80998 | 35.05834 | 751 ft | 61 kts | 216° |
| 2026-04-25 12:59 | 32.80656 | 35.05520 | 556 ft | 62 kts | 223° |
| 2026-04-25 12:59 | 32.80387 | 35.05121 | 369 ft | 60 kts | 247° |
| 2026-04-25 12:59 | 32.80454 | 35.04639 | 116 ft | 63 kts | 318° |
| 2026-04-25 12:59 | 32.80783 | 35.04470 | 20 ft | 36 kts | 338° |
| 2026-04-25 13:00 | 32.80982 | 35.04389 | 22 ft | 28 kts | 338° |
| 2026-04-25 13:00 | 32.81041 | 35.04359 | 21 ft | 29 kts | 335° |
| 2026-04-25 13:00 | 32.81311 | 35.04248 | 23 ft | 20 kts | 338° |
| 2026-04-25 13:00 | 32.81429 | 35.04195 | 24 ft | 17 kts | 348° |
| 2026-04-25 13:01 | 32.81464 | 35.04208 | 24 ft | 8 kts | 80° |
| 2026-04-25 13:01 | 32.81489 | 35.04292 | 23 ft | 12 kts | 70° |
| 2026-04-25 13:01 | 32.81509 | 35.04363 | 21 ft | 5 kts | 88° |
| 2026-04-25 13:01 | 32.81511 | 35.04386 | 21 ft | 0 kts | 48° |
| 2026-04-25 13:02 | 32.81518 | 35.04387 | 21 ft | 3 kts | 327° |
| 2026-04-25 13:02 | 32.81523 | 35.04375 | 21 ft | 0 kts | 262° |